Pagina principale
METAR-TAF:

METAR-TAF

Aeroporti :

Aeroporto Internazionale di Sharm el-Sheikh

Sharm el-Sheikh, Egitto

latitudine: 27-58N, longitudine: 034-23E, altezza: 50 m

Osservazione

Il bollettino è stato emesso 1 ora e 22 minuti fa, alle 05:00 UTC
Vento 13 kt da nord
Temperature 33°C
Umidità 53%
Pressione 1007 hPa
Visibilità 10 km o più
nessuna nube inferiore a 1500 m e nessun cumulonembo

METAR: HESH 270500Z 36013KT CAVOK 33/22 Q1007 NOSIG

Ora: 08:22 (06:22 UTC)

Previsione

Il bollettino è stato emesso 1 ora e 22 minuti fa, alle 05:00 UTC
Previsione valida dal 27 alle 06 UTC al 28 alle 12 UTC
Vento 12 kt da nord/nord-est
Visibilità 10 km o più
nessuna nube inferiore a 1500 m e nessun cumulonembo
Evoluzione graduale
dal 27 alle 09 UTC al 27 alle 11 UTC
Vento 8 kt da sud/sud-est
Evoluzione graduale
dal 27 alle 18 UTC al 27 alle 20 UTC
Vento 11 kt da nord-ovest

TAF: HESH 270500Z 2706/2812 02012KT CAVOK BECMG 2709/2711 16008KT BECMG 2718/2720 31011KT

Osservazioni e previsioni meteorologiche di più di 4000 aeroporti (messaggi METAR e TAF).

Le stazioni disponibili sono rappresentate dai dischi gialli e rossi sulla carta.

Puntare il mouse per vedere il nome della stazione.

Clicca sopra per visualizzare le osservazioni e previsioni meteorologiche.

Per cambiare la mappa : fare clic sui pulsanti verdi con una croce nera per ingrandire, il pulsante verde con un trattino per diminuire, o sulla freccia verde per le mappe adiacenti.


METAR-TAF: